Time;durP1;ratioP1;P1;durP2;ratioP2;P2;SDS_P1;SDS_P2;PMS_P1;PMS_P2;Temp;Humidity;BMP_temperature;BMP_pressure;BME280_temperature;BME280_humidity;BME280_pressure;Samples;Min_cycle;Max_cycle;Signal;HPM_P1;HPM_P2
2022/05/13 00:02:09;;;;;;;6.93;4.30;;;;;;;14.45;nan;-24220.16;5072936;28;20185;-68
2022/05/13 00:04:36;;;;;;;7.10;4.47;;;;;;;14.31;nan;-24216.22;5073671;28;20572;-67
2022/05/13 00:07:01;;;;;;;5.65;4.18;;;;;;;14.45;nan;-24220.31;5074151;28;20268;-62
2022/05/13 00:09:56;;;;;;;8.65;4.55;;;;;;;14.21;nan;-24213.44;5074000;28;20287;-62
2022/05/13 00:12:13;;;;;;;7.97;4.32;;;;;;;14.31;nan;-24216.22;5079159;28;20181;-62
2022/05/13 00:14:39;;;;;;;7.43;4.60;;;;;;;14.54;nan;-24222.69;5072506;28;20205;-66
2022/05/13 00:17:06;;;;;;;12.00;4.80;;;;;;;14.24;nan;-24214.28;5069482;28;20221;-66
2022/05/13 00:19:32;;;;;;;6.97;4.07;;;;;;;14.62;nan;-24224.94;5068772;28;20193;-66
2022/05/13 00:21:58;;;;;;;7.43;4.40;;;;;;;14.71;nan;-24227.31;5068087;28;20656;-64
2022/05/13 00:24:23;;;;;;;6.93;4.07;;;;;;;14.73;nan;-24228.03;5069445;28;20181;-67
2022/05/13 00:26:48;;;;;;;8.00;4.45;;;;;;;14.58;nan;-24223.81;5070067;28;20673;-63
2022/05/13 00:29:14;;;;;;;9.20;4.82;;;;;;;14.19;nan;-24213.00;5070954;28;20574;-65
2022/05/13 00:31:39;;;;;;;6.88;4.18;;;;;;;14.38;nan;-24218.22;5070710;28;20218;-65
2022/05/13 00:34:05;;;;;;;7.25;4.43;;;;;;;14.33;nan;-24216.81;5069566;28;20573;-65
2022/05/13 00:36:30;;;;;;;5.70;3.40;;;;;;;12.02;nan;-24152.72;5069669;28;20208;-63
2022/05/13 00:38:56;;;;;;;6.38;4.20;;;;;;;14.27;nan;-24215.25;5068036;28;20178;-62
2022/05/13 00:41:21;;;;;;;6.45;3.95;;;;;;;14.50;nan;-24221.72;5068528;28;20678;-62
2022/05/13 00:43:53;;;;;;;8.57;5.07;;;;;;;14.43;nan;-24219.75;5066699;28;20265;-63
2022/05/13 00:46:20;;;;;;;5.88;3.97;;;;;;;14.13;nan;-24211.47;5066252;28;20186;-64
2022/05/13 00:48:46;;;;;;;8.27;4.90;;;;;;;14.33;nan;-24216.81;5068265;28;20230;-66
2022/05/13 00:51:16;;;;;;;7.47;4.85;;;;;;;14.20;nan;-24213.16;5077753;28;20255;-64
2022/05/13 00:53:42;;;;;;;8.10;5.15;;;;;;;13.94;nan;-24206.00;5072521;28;20245;-65
2022/05/13 00:56:07;;;;;;;10.13;4.90;;;;;;;14.24;nan;-24214.28;5076367;28;20221;-65
2022/05/13 00:58:36;;;;;;;8.50;4.95;;;;;;;14.18;nan;-24212.72;5072716;28;20573;-63
2022/05/13 01:01:02;;;;;;;8.18;4.80;;;;;;;14.05;nan;-24209.22;5072570;28;20176;-66
2022/05/13 01:03:28;;;;;;;8.50;5.13;;;;;;;13.89;nan;-24204.59;5072553;28;20645;-64
2022/05/13 01:05:57;;;;;;;9.13;4.70;;;;;;;13.78;nan;-24201.63;5072866;28;20162;-65
2022/05/13 01:08:24;;;;;;;8.23;4.82;;;;;;;13.66;nan;-24198.41;5072717;28;20655;-65
2022/05/13 01:10:50;;;;;;;5.72;4.05;;;;;;;13.76;nan;-24201.09;5072433;28;20174;-66
2022/05/13 01:13:23;;;;;;;6.97;4.35;;;;;;;13.95;nan;-24206.41;5071918;28;20264;-66
2022/05/13 01:15:51;;;;;;;9.40;5.43;;;;;;;13.91;nan;-24205.28;5072141;28;20369;-63
2022/05/13 01:18:34;;;;;;;6.75;4.25;;;;;;;13.79;nan;-24201.91;5072163;28;20189;-66
2022/05/13 01:21:01;;;;;;;7.65;4.43;;;;;;;13.90;nan;-24204.88;5072107;28;20162;-67
2022/05/13 01:23:33;;;;;;;7.40;4.50;;;;;;;13.52;nan;-24194.47;5071844;28;20178;-69
2022/05/13 01:26:05;;;;;;;6.43;4.20;;;;;;;13.88;nan;-24204.44;5071782;28;20178;-63
2022/05/13 01:28:32;;;;;;;6.45;3.90;;;;;;;13.72;nan;-24199.97;5071950;28;20580;-66
2022/05/13 01:31:00;;;;;;;6.35;3.75;;;;;;;13.70;nan;-24199.41;5071684;28;20166;-66
2022/05/13 01:33:27;;;;;;;5.55;3.92;;;;;;;13.87;nan;-24204.16;5071741;28;20212;-65
2022/05/13 01:35:55;;;;;;;6.90;4.43;;;;;;;13.73;nan;-24200.09;5071674;28;20288;-62
2022/05/13 01:38:24;;;;;;;7.38;4.07;;;;;;;13.92;nan;-24205.56;5071517;28;20174;-64
2022/05/13 01:40:50;;;;;;;6.35;3.88;;;;;;;13.92;nan;-24205.56;5071888;28;20166;-65
2022/05/13 01:43:15;;;;;;;6.50;4.15;;;;;;;13.62;nan;-24197.16;5069446;28;20256;-64
2022/05/13 01:45:41;;;;;;;8.15;4.40;;;;;;;13.87;nan;-24204.16;5071722;28;20181;-66
2022/05/13 01:48:07;;;;;;;6.75;4.03;;;;;;;13.57;nan;-24195.88;5072003;28;20174;-63
2022/05/13 01:50:34;;;;;;;6.05;3.85;;;;;;;13.94;nan;-24206.13;5072003;28;20170;-66
2022/05/13 01:52:59;;;;;;;6.38;4.00;;;;;;;13.92;nan;-24205.44;5071786;28;20181;-64
2022/05/13 01:55:25;;;;;;;6.68;4.32;;;;;;;;;;5072920;28;20229;-66
2022/05/13 01:57:51;;;;;;;5.65;3.65;;;;;;;13.55;nan;-24195.19;5074859;28;20182;-68
2022/05/13 02:00:17;;;;;;;5.25;4.05;;;;;;;13.69;nan;-24199.13;5076615;28;20182;-64
2022/05/13 02:05:27;;;;;;;8.57;4.05;;;;;;;13.35;nan;-24189.72;5071777;28;20220;-63
2022/05/13 02:07:53;;;;;;;6.90;3.90;;;;;;;13.31;nan;-24188.44;5071731;28;20654;-67
2022/05/13 02:10:19;;;;;;;5.75;3.90;;;;;;;13.32;nan;-24188.72;5070087;28;20230;-65
2022/05/13 02:12:44;;;;;;;6.93;3.85;;;;;;;13.47;nan;-24193.06;5067641;28;20218;-67
2022/05/13 02:15:10;;;;;;;6.18;4.28;;;;;;;13.53;nan;-24194.75;5071667;28;20206;-67
2022/05/13 02:17:36;;;;;;;6.10;3.88;;;;;;;13.17;nan;-24184.66;5071601;28;20186;-67
2022/05/13 02:20:04;;;;;;;7.05;4.00;;;;;;;13.24;nan;-24186.75;5071636;28;20178;-66
2022/05/13 02:22:29;;;;;;;7.93;4.47;;;;;;;13.52;nan;-24194.47;5071759;28;20174;-65
2022/05/13 02:24:55;;;;;;;7.78;4.07;;;;;;;13.38;nan;-24190.41;5071651;28;20178;-67
2022/05/13 02:27:20;;;;;;;5.30;3.58;;;;;;;13.15;nan;-24184.22;5071565;28;20176;-66
2022/05/13 02:29:45;;;;;;;6.68;3.72;;;;;;;13.46;nan;-24192.66;5071765;28;20253;-65
2022/05/13 02:32:12;;;;;;;6.90;3.67;;;;;;;13.38;nan;-24190.41;5070441;28;20210;-70
2022/05/13 02:34:37;;;;;;;6.05;4.10;;;;;;;13.48;nan;-24193.22;5071336;28;20318;-65
2022/05/13 02:37:04;;;;;;;7.80;4.10;;;;;;;13.56;nan;-24195.47;5071565;28;20622;-64
2022/05/13 02:39:30;;;;;;;6.65;3.90;;;;;;;13.39;nan;-24190.69;5071969;28;20174;-66
2022/05/13 02:41:55;;;;;;;6.40;3.83;;;;;;;13.23;nan;-24186.34;5071881;28;20215;-65
2022/05/13 02:44:21;;;;;;;8.30;4.80;;;;;;;13.43;nan;-24191.81;5070093;28;20677;-63
2022/05/13 02:46:47;;;;;;;8.18;4.30;;;;;;;13.46;nan;-24192.66;5067301;28;20294;-64
2022/05/13 02:49:13;;;;;;;5.80;4.05;;;;;;;13.43;nan;-24191.81;5066760;28;20201;-67
2022/05/13 02:51:40;;;;;;;7.95;4.35;;;;;;;13.42;nan;-24191.66;5065230;28;20182;-65
2022/05/13 02:54:07;;;;;;;8.35;4.28;;;;;;;13.28;nan;-24187.88;5068336;28;20225;-64
2022/05/13 02:56:32;;;;;;;5.40;4.05;;;;;;;13.50;nan;-24193.78;5067708;28;20209;-66
2022/05/13 02:58:58;;;;;;;7.10;4.35;;;;;;;13.41;nan;-24191.38;5068231;28;20753;-65
2022/05/13 03:01:23;;;;;;;7.18;4.25;;;;;;;13.38;nan;-24190.41;5069306;28;20200;-64
2022/05/13 03:03:49;;;;;;;6.85;4.13;;;;;;;13.42;nan;-24191.53;5067015;28;20251;-67
2022/05/13 03:06:16;;;;;;;8.25;4.07;;;;;;;13.25;nan;-24187.03;5071923;28;20239;-64
2022/05/13 03:08:42;;;;;;;5.00;3.60;;;;;;;13.31;nan;-24188.59;5071212;28;20185;-65
2022/05/13 03:11:07;;;;;;;4.88;3.60;;;;;;;13.10;nan;-24182.81;5071161;28;20261;-66
2022/05/13 03:13:33;;;;;;;7.18;3.75;;;;;;;13.44;nan;-24192.25;5071298;28;20166;-62
2022/05/13 03:16:27;;;;;;;5.30;3.60;;;;;;;14.22;nan;-24213.84;5071183;28;20190;-66
2022/05/13 03:18:55;;;;;;;8.23;3.83;;;;;;;14.55;nan;-24223.13;5063588;28;20197;-67
2022/05/13 03:21:22;;;;;;;5.75;3.85;;;;;;;15.21;nan;-24241.19;5074912;28;20208;-67
2022/05/13 03:23:48;;;;;;;5.07;3.47;;;;;;;16.24;nan;-24269.75;5074763;28;20181;-65
2022/05/13 03:26:16;;;;;;;5.70;3.97;;;;;;;16.92;nan;-24288.47;5074863;28;20167;-67
2022/05/13 03:28:42;;;;;;;5.07;3.30;;;;;;;17.40;nan;-24301.88;5074622;28;20166;-66
2022/05/13 03:31:08;;;;;;;6.43;4.10;;;;;;;18.00;nan;-24318.47;5076502;28;20181;-63
2022/05/13 03:33:34;;;;;;;6.28;4.05;;;;;;;18.85;nan;-24341.75;5080164;28;20182;-65
2022/05/13 03:35:59;;;;;;;6.88;3.88;;;;;;;19.53;nan;-24360.53;5074169;28;20297;-66
2022/05/13 03:38:25;;;;;;;7.15;3.80;;;;;;;20.23;nan;-24379.72;5081570;28;20185;-66
2022/05/13 03:40:51;;;;;;;5.50;3.75;;;;;;;20.69;nan;-24392.47;5077969;28;20188;-65
2022/05/13 03:43:17;;;;;;;5.45;3.58;;;;;;;21.07;nan;-24402.88;5078067;28;20189;-67
2022/05/13 03:45:43;;;;;;;6.30;4.43;;;;;;;21.73;nan;-24420.78;5074078;28;20778;-65
2022/05/13 03:48:10;;;;;;;7.40;4.20;;;;;;;22.54;nan;-24443.06;5074782;28;20185;-65
2022/05/13 03:50:38;;;;;;;5.97;3.60;;;;;;;23.23;nan;-24461.84;5074649;28;20278;-68
2022/05/13 03:53:04;;;;;;;6.57;3.90;;;;;;;23.46;nan;-24468.22;5077295;28;20184;-63
2022/05/13 03:55:29;;;;;;;5.55;3.58;;;;;;;24.16;nan;-24487.41;5104258;27;20206;-67
2022/05/13 03:57:55;;;;;;;6.38;3.50;;;;;;;24.60;nan;-24499.38;5079407;28;20189;-67
2022/05/13 04:00:21;;;;;;;6.03;3.72;;;;;;;24.80;nan;-24504.63;5073479;28;20657;-67
2022/05/13 04:02:47;;;;;;;5.55;3.70;;;;;;;24.98;nan;-24509.72;5076141;28;20180;-67
2022/05/13 04:10:42;;;;;;;6.18;3.95;;;;;;;26.12;nan;-24540.69;5073539;28;20250;-66
2022/05/13 04:16:06;;;;;;;6.57;3.50;;;;;;;26.52;nan;-24551.53;5073183;28;20782;-67
2022/05/13 04:18:37;;;;;;;6.68;4.13;;;;;;;26.79;nan;-24558.94;5073394;28;20226;-64
2022/05/13 04:21:11;;;;;;;5.20;3.63;;;;;;;26.55;nan;-24552.22;5073010;28;20173;-63
2022/05/13 04:23:39;;;;;;;6.00;3.72;;;;;;;26.70;nan;-24556.31;5073579;28;20249;-67
2022/05/13 04:26:05;;;;;;;6.25;3.60;;;;;;;27.16;nan;-24568.94;5072552;28;20193;-63
2022/05/13 04:28:31;;;;;;;5.20;3.50;;;;;;;26.80;nan;-24559.06;5075258;28;20704;-67
2022/05/13 04:30:58;;;;;;;6.57;3.50;;;;;;;26.84;nan;-24560.16;5073852;28;20186;-67
2022/05/13 04:33:24;;;;;;;4.72;3.45;;;;;;;26.59;nan;-24553.31;5074498;28;20181;-67
2022/05/13 04:35:49;;;;;;;5.18;3.45;;;;;;;26.11;nan;-24540.25;5072297;28;20288;-68
2022/05/13 04:38:15;;;;;;;5.30;3.65;;;;;;;26.19;nan;-24542.47;5078932;28;20231;-65
2022/05/13 04:40:41;;;;;;;6.32;3.70;;;;;;;26.22;nan;-24543.41;5077551;28;20309;-67
2022/05/13 04:43:06;;;;;;;8.15;3.83;;;;;;;26.07;nan;-24539.31;5104706;27;20656;-68
2022/05/13 04:45:32;;;;;;;6.63;3.60;;;;;;;25.98;nan;-24536.69;5072862;28;20609;-63
2022/05/13 04:48:17;;;;;;;4.57;3.40;;;;;;;25.52;nan;-24524.31;5052955;28;20159;-68
2022/05/13 04:50:59;;;;;;;6.15;4.10;;;;;;;25.52;nan;-24524.44;5079059;28;20229;-66
2022/05/13 04:53:32;;;;;;;6.07;3.88;;;;;;;24.83;nan;-24505.59;5074766;28;20610;-67
2022/05/13 04:56:00;;;;;;;5.72;4.10;;;;;;;24.53;nan;-24497.31;5104874;28;20309;-67
2022/05/13 04:58:27;;;;;;;6.70;3.78;;;;;;;24.35;nan;-24492.50;5072092;28;20178;-67
2022/05/13 05:00:56;;;;;;;6.13;3.78;;;;;;;24.51;nan;-24496.78;5072438;28;20206;-67
2022/05/13 05:03:23;;;;;;;5.68;3.92;;;;;;;24.83;nan;-24505.44;5072242;28;20257;-63
2022/05/13 05:05:49;;;;;;;6.20;3.75;;;;;;;24.68;nan;-24501.31;5072389;28;20230;-66
2022/05/13 05:08:15;;;;;;;6.03;3.45;;;;;;;24.41;nan;-24494.16;5072012;28;20174;-66
2022/05/13 05:10:42;;;;;;;6.15;3.75;;;;;;;24.39;nan;-24493.47;5072273;28;20174;-63
2022/05/13 05:13:08;;;;;;;5.68;4.07;;;;;;;24.24;nan;-24489.47;5071539;28;20190;-63
2022/05/13 05:15:34;;;;;;;6.05;3.35;;;;;;;24.00;nan;-24482.97;5071634;28;20198;-63
2022/05/13 05:18:00;;;;;;;4.45;3.25;;;;;;;23.53;nan;-24470.00;5071249;28;20182;-62
2022/05/13 05:20:26;;;;;;;6.40;3.35;;;;;;;23.28;nan;-24463.25;5073182;28;20185;-64
2022/05/13 05:22:52;;;;;;;5.93;3.72;;;;;;;22.66;nan;-24446.38;5071427;28;20186;-64
2022/05/13 05:25:19;;;;;;;5.22;3.45;;;;;;;22.28;nan;-24436.00;5071816;28;20185;-66
2022/05/13 05:27:45;;;;;;;6.35;3.67;;;;;;;21.83;nan;-24423.69;5073709;28;20676;-63
2022/05/13 05:30:12;;;;;;;6.53;4.10;;;;;;;21.59;nan;-24417.16;5071333;28;20185;-67
2022/05/13 05:32:39;;;;;;;5.57;4.03;;;;;;;21.46;nan;-24413.44;5070653;28;20166;-67
2022/05/13 05:35:08;;;;;;;4.70;3.47;;;;;;;21.28;nan;-24408.56;5071702;28;20267;-66
2022/05/13 05:37:33;;;;;;;5.25;3.63;;;;;;;21.19;nan;-24406.06;5071292;28;20185;-64
2022/05/13 05:39:59;;;;;;;5.72;3.58;;;;;;;21.11;nan;-24404.00;5071309;28;20174;-68
2022/05/13 05:42:25;;;;;;;5.90;3.70;;;;;;;20.84;nan;-24396.38;5070744;28;20174;-67
2022/05/13 05:44:50;;;;;;;4.65;3.47;;;;;;;20.67;nan;-24391.94;5070023;28;20178;-68
2022/05/13 05:47:20;;;;;;;5.68;3.65;;;;;;;20.92;nan;-24398.72;5068358;28;20177;-66
2022/05/13 05:49:45;;;;;;;7.13;3.90;;;;;;;20.95;nan;-24399.41;5076313;28;20672;-62
2022/05/13 05:52:11;;;;;;;5.15;3.28;;;;;;;20.95;nan;-24399.41;5071708;28;20186;-61
2022/05/13 05:57:22;;;;;;;4.13;3.15;;;;;;;21.11;nan;-24404.00;5072173;28;20201;-66
2022/05/13 05:59:48;;;;;;;9.88;3.53;;;;;;;20.84;nan;-24396.38;5072451;28;20177;-64
2022/05/13 06:02:14;;;;;;;4.38;3.03;;;;;;;20.66;nan;-24391.50;5074489;28;20181;-64
2022/05/13 06:04:40;;;;;;;6.35;3.65;;;;;;;20.75;nan;-24394.00;5071552;28;20213;-67
2022/05/13 06:07:11;;;;;;;5.10;3.20;;;;;;;20.70;nan;-24392.75;5073065;28;20225;-65
2022/05/13 06:09:41;;;;;;;4.90;3.58;;;;;;;20.45;nan;-24385.69;5070451;28;20185;-65
2022/05/13 06:12:09;;;;;;;5.97;3.58;;;;;;;20.96;nan;-24399.69;5052768;28;20185;-67
2022/05/13 06:14:35;;;;;;;4.80;3.47;;;;;;;21.13;nan;-24404.56;5056823;28;20247;-65
2022/05/13 06:17:01;;;;;;;5.13;3.58;;;;;;;20.71;nan;-24393.03;5076286;28;20281;-64
2022/05/13 06:19:27;;;;;;;5.38;3.40;;;;;;;21.17;nan;-24405.38;5071717;28;20649;-68
2022/05/13 06:21:53;;;;;;;4.55;3.20;;;;;;;21.32;nan;-24409.69;5073869;28;20194;-66
2022/05/13 06:24:19;;;;;;;5.05;3.58;;;;;;;21.05;nan;-24402.34;5071691;28;20169;-68
2022/05/13 06:26:49;;;;;;;5.53;3.60;;;;;;;21.35;nan;-24410.38;5071494;28;20188;-66
2022/05/13 06:29:16;;;;;;;5.80;3.75;;;;;;;21.31;nan;-24409.28;5071691;28;20169;-65
2022/05/13 06:31:42;;;;;;;5.70;4.00;;;;;;;21.40;nan;-24411.75;5071503;28;20649;-65
2022/05/13 06:34:08;;;;;;;4.90;3.65;;;;;;;21.42;nan;-24412.31;5070070;28;20184;-67
2022/05/13 06:36:34;;;;;;;4.72;3.55;;;;;;;21.53;nan;-24415.38;5071079;28;20276;-64
2022/05/13 06:39:00;;;;;;;5.07;3.65;;;;;;;21.94;nan;-24426.59;5070401;28;20605;-64
2022/05/13 06:41:25;;;;;;;5.65;3.78;;;;;;;21.63;nan;-24418.13;5071582;28;20170;-66
2022/05/13 06:43:51;;;;;;;5.75;3.92;;;;;;;21.67;nan;-24419.25;5071268;28;20745;-65
2022/05/13 06:46:17;;;;;;;6.13;4.07;;;;;;;21.50;nan;-24414.66;5071258;28;20178;-65
2022/05/13 06:48:42;;;;;;;4.90;3.70;;;;;;;21.91;nan;-24425.91;5071024;28;20549;-63
2022/05/13 06:51:07;;;;;;;5.95;3.42;;;;;;;21.95;nan;-24427.00;5071089;28;20177;-67
2022/05/13 06:53:33;;;;;;;5.78;3.47;;;;;;;22.25;nan;-24435.16;5072486;28;20225;-63
2022/05/13 06:55:58;;;;;;;5.40;3.70;;;;;;;21.86;nan;-24424.50;5074683;28;20241;-69
2022/05/13 06:58:24;;;;;;;5.78;3.45;;;;;;;22.11;nan;-24431.16;5074403;28;20243;-64
2022/05/13 07:00:49;;;;;;;5.38;3.85;;;;;;;22.55;nan;-24443.34;5075167;28;20686;-68
2022/05/13 07:03:17;;;;;;;5.78;3.38;;;;;;;22.72;nan;-24447.91;5075025;28;20178;-64
2022/05/13 07:05:43;;;;;;;5.60;3.70;;;;;;;22.97;nan;-24454.81;5074280;28;20178;-66
2022/05/13 07:08:09;;;;;;;4.50;3.20;;;;;;;22.74;nan;-24448.59;5075628;28;20323;-63
2022/05/13 07:10:37;;;;;;;5.57;3.67;;;;;;;23.12;nan;-24458.81;5075352;28;20182;-64
2022/05/13 07:13:05;;;;;;;4.88;3.30;;;;;;;23.18;nan;-24460.47;5074824;28;20268;-65
2022/05/13 07:15:31;;;;;;;5.38;3.67;;;;;;;23.09;nan;-24458.13;5074877;28;20189;-65
2022/05/13 07:17:58;;;;;;;4.57;3.63;;;;;;;23.43;nan;-24467.38;5074630;28;20205;-67
2022/05/13 07:20:25;;;;;;;5.60;3.90;;;;;;;23.36;nan;-24465.44;5075245;28;20154;-66
2022/05/13 07:22:51;;;;;;;3.90;3.20;;;;;;;23.62;nan;-24472.50;5074606;28;20243;-63
2022/05/13 07:25:17;;;;;;;5.07;3.70;;;;;;;23.94;nan;-24481.19;5074699;28;20228;-62
2022/05/13 07:27:42;;;;;;;5.80;3.45;;;;;;;23.86;nan;-24479.13;5073615;28;20173;-67
2022/05/13 07:30:08;;;;;;;5.05;3.45;;;;;;;24.19;nan;-24488.22;5074126;28;20663;-67
2022/05/13 07:32:34;;;;;;;5.72;4.10;;;;;;;24.20;nan;-24488.50;5072748;28;20322;-65
2022/05/13 07:34:59;;;;;;;5.43;3.70;;;;;;;24.20;nan;-24488.50;5073972;28;20205;-66
2022/05/13 07:37:25;;;;;;;6.20;4.07;;;;;;;24.25;nan;-24489.75;5074116;28;20177;-65
2022/05/13 07:42:34;;;;;;;5.50;3.83;;;;;;;24.19;nan;-24488.09;5073801;28;20239;-65
2022/05/13 07:44:59;;;;;;;6.00;3.65;;;;;;;24.28;nan;-24490.44;5074220;28;20257;-66
2022/05/13 07:47:25;;;;;;;6.68;3.70;;;;;;;24.09;nan;-24485.31;5073430;28;20579;-65
2022/05/13 07:49:50;;;;;;;5.25;3.72;;;;;;;24.50;nan;-24496.50;5072961;28;20174;-64
2022/05/13 07:52:16;;;;;;;5.03;3.70;;;;;;;24.42;nan;-24494.44;5074112;28;20243;-63
2022/05/13 07:54:41;;;;;;;6.90;4.35;;;;;;;24.66;nan;-24500.91;5071955;28;20736;-66
2022/05/13 07:57:07;;;;;;;6.57;3.95;;;;;;;24.83;nan;-24505.59;5079281;28;20205;-66
2022/05/13 08:00:24;;;;;;;4.63;3.60;;;;;;;24.58;nan;-24498.84;5073425;28;20197;-67
2022/05/13 08:02:18;;;;;;;5.30;3.80;;;;;;;25.03;nan;-24511.09;5073199;28;20221;-66
2022/05/13 08:04:43;;;;;;;4.35;3.40;;;;;;;24.63;nan;-24500.06;5072983;28;20205;-64
2022/05/13 08:07:09;;;;;;;5.75;3.97;;;;;;;24.90;nan;-24507.53;5073666;28;20609;-67
2022/05/13 08:09:34;;;;;;;5.53;3.67;;;;;;;24.89;nan;-24507.25;5073894;28;20169;-66
2022/05/13 08:11:59;;;;;;;4.78;3.60;;;;;;;24.49;nan;-24496.22;5073532;28;20605;-68
2022/05/13 08:14:25;;;;;;;6.70;3.78;;;;;;;24.82;nan;-24505.31;5073512;28;20173;-67
2022/05/13 08:16:50;;;;;;;7.13;3.55;;;;;;;24.74;nan;-24502.97;5072352;28;20339;-63
2022/05/13 08:19:16;;;;;;;5.25;3.33;;;;;;;24.77;nan;-24503.94;5071986;28;20173;-65
2022/05/13 08:21:41;;;;;;;5.82;3.67;;;;;;;24.97;nan;-24509.31;5073707;28;20178;-64
2022/05/13 08:24:06;;;;;;;5.80;3.30;;;;;;;24.85;nan;-24506.13;5073456;28;20579;-67
2022/05/13 08:26:32;;;;;;;12.50;3.50;;;;;;;25.23;nan;-24516.47;5073220;28;20223;-67
2022/05/13 08:28:57;;;;;;;6.82;3.80;;;;;;;25.39;nan;-24520.72;5073066;28;20249;-62
2022/05/13 08:31:23;;;;;;;5.85;3.90;;;;;;;25.58;nan;-24525.97;5073272;28;20170;-67
2022/05/13 08:33:48;;;;;;;5.07;3.65;;;;;;;25.40;nan;-24521.16;5073462;28;20562;-64
2022/05/13 08:36:14;;;;;;;5.47;3.72;;;;;;;25.39;nan;-24520.88;5073397;28;20194;-64
2022/05/13 08:38:40;;;;;;;6.15;4.28;;;;;;;25.36;nan;-24520.03;5073162;28;20589;-66
2022/05/13 08:41:09;;;;;;;6.93;4.22;;;;;;;25.64;nan;-24527.63;5073681;28;20170;-64
2022/05/13 08:43:43;;;;;;;4.75;3.60;;;;;;;25.71;nan;-24529.41;5072420;28;20680;-64
2022/05/13 08:46:39;;;;;;;7.10;4.15;;;;;;;25.74;nan;-24530.38;5071713;28;20178;-67
2022/05/13 08:49:07;;;;;;;4.32;3.53;;;;;;;25.90;nan;-24534.63;5072344;28;20219;-72
2022/05/13 08:51:41;;;;;;;4.88;3.60;;;;;;;26.03;nan;-24538.06;5072322;28;20178;-75
2022/05/13 08:54:19;;;;;;;5.40;4.18;;;;;;;25.71;nan;-24529.53;5072012;28;20233;-74
2022/05/13 08:56:53;;;;;;;8.35;4.18;;;;;;;25.86;nan;-24533.53;5072185;28;20676;-74
2022/05/13 08:59:35;;;;;;;6.60;4.20;;;;;;;25.74;nan;-24530.38;5072464;28;20703;-74
2022/05/13 09:02:06;;;;;;;6.10;4.07;;;;;;;25.75;nan;-24530.50;5072139;28;20166;-74
2022/05/13 09:04:42;;;;;;;7.05;4.43;;;;;;;25.98;nan;-24536.69;5072374;28;20174;-74
2022/05/13 09:07:17;;;;;;;4.80;3.80;;;;;;;25.60;nan;-24526.38;5072520;28;20249;-74
2022/05/13 09:09:46;;;;;;;5.15;3.72;;;;;;;25.87;nan;-24533.81;5072395;28;20177;-74
2022/05/13 09:12:24;;;;;;;5.22;3.95;;;;;;;25.64;nan;-24527.47;5072188;28;20264;-74
2022/05/13 09:15:19;;;;;;;4.95;3.75;;;;;;;26.00;nan;-24537.22;5071865;28;20201;-73
2022/05/13 09:18:03;;;;;;;9.45;4.47;;;;;;;26.17;nan;-24541.91;5069541;28;20545;-74
2022/05/13 09:20:28;;;;;;;5.03;3.97;;;;;;;26.02;nan;-24537.94;5070696;28;20166;-73
2022/05/13 09:22:58;;;;;;;7.88;4.50;;;;;;;26.19;nan;-24542.59;5072229;28;20174;-74
2022/05/13 09:25:55;;;;;;;8.07;4.65;;;;;;;25.94;nan;-24535.72;5071873;28;20177;-73
2022/05/13 09:28:22;;;;;;;7.82;4.35;;;;;;;26.23;nan;-24543.69;5074973;28;20185;-73
2022/05/13 09:30:50;;;;;;;7.55;4.70;;;;;;;26.08;nan;-24539.56;5074141;28;20170;-73
2022/05/13 09:33:36;;;;;;;5.63;3.92;;;;;;;26.17;nan;-24541.91;5071931;28;20178;-75
2022/05/13 09:36:06;;;;;;;5.75;4.22;;;;;;;26.52;nan;-24551.38;5072053;28;20197;-75
2022/05/13 09:38:45;;;;;;;6.22;4.38;;;;;;;26.67;nan;-24555.50;5051413;28;20305;-75
2022/05/13 09:41:13;;;;;;;6.00;4.30;;;;;;;26.28;nan;-24545.06;5051942;28;20269;-75
2022/05/13 09:43:40;;;;;;;7.00;4.82;;;;;;;26.13;nan;-24540.94;5051669;28;20186;-75
2022/05/13 09:46:08;;;;;;;5.93;4.25;;;;;;;26.14;nan;-24541.09;5051597;28;20177;-75
2022/05/13 09:48:37;;;;;;;5.65;4.05;;;;;;;25.93;nan;-24535.44;5052218;28;20618;-75
2022/05/13 09:51:21;;;;;;;5.63;4.30;;;;;;;26.23;nan;-24543.69;5051750;28;20181;-74
2022/05/13 09:54:05;;;;;;;5.80;4.13;;;;;;;26.41;nan;-24548.38;5051737;28;20222;-74
2022/05/13 09:56:39;;;;;;;5.53;4.03;;;;;;;26.21;nan;-24543.00;5051107;28;20212;-74
2022/05/13 09:59:12;;;;;;;6.05;3.92;;;;;;;26.22;nan;-24543.41;5051544;28;20169;-74
2022/05/13 10:01:38;;;;;;;5.07;4.20;;;;;;;26.15;nan;-24541.34;5084417;28;20190;-73
2022/05/13 10:04:12;;;;;;;4.40;3.65;;;;;;;26.47;nan;-24550.16;5051492;28;20600;-73
2022/05/13 10:06:40;;;;;;;6.45;4.53;;;;;;;26.43;nan;-24549.06;5067498;28;20196;-73
2022/05/13 10:14:43;;;;;;;5.45;3.50;;;;;;;26.68;nan;-24555.78;5069430;28;20188;-74
2022/05/13 10:17:17;;;;;;;5.03;3.92;;;;;;;26.80;nan;-24559.22;5071469;28;20303;-74
2022/05/13 10:19:54;;;;;;;5.10;3.85;;;;;;;26.80;nan;-24559.22;5068786;28;20235;-74
2022/05/13 10:22:28;;;;;;;4.63;3.65;;;;;;;26.89;nan;-24561.41;5070649;28;20268;-75
2022/05/13 10:25:03;;;;;;;6.85;3.60;;;;;;;27.10;nan;-24567.31;5072740;28;20177;-72
2022/05/13 10:27:39;;;;;;;5.35;3.83;;;;;;;26.92;nan;-24562.22;5074488;28;20567;-75
2022/05/13 10:30:10;;;;;;;4.68;3.45;;;;;;;26.73;nan;-24557.28;5076167;28;20219;-75
2022/05/13 10:32:53;;;;;;;5.20;4.00;;;;;;;26.96;nan;-24563.47;5077839;28;20188;-74
2022/05/13 10:35:24;;;;;;;6.60;3.88;;;;;;;26.53;nan;-24551.66;5079672;28;20200;-74
2022/05/13 10:37:49;;;;;;;4.43;3.55;;;;;;;26.65;nan;-24555.09;5080254;28;20574;-74
2022/05/13 10:40:19;;;;;;;4.75;3.30;;;;;;;26.62;nan;-24554.13;5078909;28;20174;-74
2022/05/13 10:42:56;;;;;;;4.13;2.92;;;;;;;26.68;nan;-24555.78;5103365;28;20180;-74
2022/05/13 10:45:25;;;;;;;4.22;3.13;;;;;;;26.97;nan;-24563.75;5078653;28;20188;-75
2022/05/13 10:47:54;;;;;;;3.83;3.10;;;;;;;27.28;nan;-24571.97;5074894;28;20327;-74
2022/05/13 10:50:38;;;;;;;3.55;2.70;;;;;;;27.19;nan;-24569.78;5076798;28;20189;-73
2022/05/13 10:53:22;;;;;;;3.50;2.83;;;;;;;26.94;nan;-24562.91;5076061;28;20186;-74
2022/05/13 10:55:59;;;;;;;4.72;3.22;;;;;;;27.12;nan;-24567.84;5078322;28;20722;-72
2022/05/13 10:58:50;;;;;;;4.75;3.40;;;;;;;27.27;nan;-24571.84;5076233;28;20184;-70
2022/05/13 11:01:48;;;;;;;4.63;3.45;;;;;;;27.19;nan;-24569.78;5074965;28;20620;-73
2022/05/13 11:04:45;;;;;;;5.55;3.30;;;;;;;27.19;nan;-24569.78;5076906;28;20185;-71
2022/05/13 11:07:41;;;;;;;4.70;3.42;;;;;;;27.16;nan;-24568.94;5075148;28;20202;-71
2022/05/13 11:10:12;;;;;;;5.15;3.28;;;;;;;27.48;nan;-24577.44;5074761;28;20173;-72
2022/05/13 11:13:08;;;;;;;5.80;3.50;;;;;;;27.56;nan;-24579.78;5074250;28;20214;-71
2022/05/13 11:15:33;;;;;;;4.40;3.53;;;;;;;27.58;nan;-24580.19;5074149;28;20202;-71
2022/05/13 11:18:30;;;;;;;5.95;3.75;;;;;;;27.66;nan;-24582.53;5073306;28;20185;-70
2022/05/13 11:21:38;;;;;;;4.20;3.45;;;;;;;27.71;nan;-24583.75;5072887;28;20224;-72
2022/05/13 11:27:15;;;;;;;4.68;3.60;;;;;;;27.36;nan;-24574.16;5074213;28;20176;-72
2022/05/13 11:29:56;;;;;;;5.20;3.33;;;;;;;27.83;nan;-24587.03;5074060;28;20641;-71
2022/05/13 11:32:46;;;;;;;4.78;3.65;;;;;;;27.53;nan;-24578.81;5073895;28;20177;-71
2022/05/13 11:35:30;;;;;;;4.95;3.25;;;;;;;27.65;nan;-24582.13;5073741;28;20220;-73
2022/05/13 11:38:01;;;;;;;5.68;3.50;;;;;;;27.33;nan;-24573.47;5080587;28;20309;-75
2022/05/13 11:40:32;;;;;;;4.65;3.42;;;;;;;27.68;nan;-24582.94;5076129;28;20189;-73
2022/05/13 11:43:20;;;;;;;5.25;3.60;;;;;;;27.83;nan;-24587.03;5073608;28;20243;-77
2022/05/13 11:46:07;;;;;;;3.90;3.28;;;;;;;28.32;nan;-24600.19;5075388;28;20496;-72
2022/05/13 11:48:35;;;;;;;4.72;3.45;;;;;;;28.61;nan;-24607.97;5073676;28;20182;-73
2022/05/13 11:51:02;;;;;;;3.70;3.00;;;;;;;27.94;nan;-24589.91;5073407;28;20261;-74
2022/05/13 11:53:46;;;;;;;4.65;3.25;;;;;;;27.34;nan;-24573.75;5073461;28;20232;-73
2022/05/13 11:56:29;;;;;;;5.68;3.63;;;;;;;27.41;nan;-24575.53;5053924;28;20220;-72
2022/05/13 11:58:57;;;;;;;4.20;3.10;;;;;;;27.65;nan;-24582.25;5053636;28;20214;-73
2022/05/13 12:01:34;;;;;;;5.05;3.28;;;;;;;27.85;nan;-24587.59;5053332;28;20202;-74
2022/05/13 12:04:16;;;;;;;4.35;3.28;;;;;;;27.70;nan;-24583.47;5053495;28;20179;-71
2022/05/13 12:06:50;;;;;;;4.47;2.90;;;;;;;27.64;nan;-24581.97;5053709;28;20642;-71
2022/05/13 12:09:24;;;;;;;3.92;3.00;;;;;;;27.79;nan;-24585.94;5053434;28;20163;-71
2022/05/13 12:12:17;;;;;;;4.32;2.75;;;;;;;27.35;nan;-24573.88;5053074;28;20170;-73
2022/05/13 12:15:01;;;;;;;6.30;3.13;;;;;;;27.66;nan;-24582.53;5053260;28;20242;-75
2022/05/13 12:18:01;;;;;;;4.40;3.13;;;;;;;27.92;nan;-24589.50;5052312;28;20589;-72
2022/05/13 12:20:41;;;;;;;4.70;3.72;;;;;;;27.98;nan;-24591.00;5072364;28;20185;-72